Time;durP1;ratioP1;P1;durP2;ratioP2;P2;SDS_P1;SDS_P2;PMS_P1;PMS_P2;Temp;Humidity;BMP_temperature;BMP_pressure;BME280_temperature;BME280_humidity;BME280_pressure;Samples;Min_cycle;Max_cycle;Signal;HPM_P1;HPM_P2
2023/07/08 00:02:28;;;;;;;14.07;4.07;;;;;;;-142.57;83.18;115900.28;6247097;22;20007;-92
2023/07/08 00:04:59;;;;;;;11.63;4.78;;;;;;;-142.57;81.91;115900.28;6298649;22;20023;-90
2023/07/08 00:07:24;;;;;;;12.27;5.20;;;;;;;-142.57;83.37;115900.28;6271998;22;20004;-90
2023/07/08 00:09:52;;;;;;;12.63;4.43;;;;;;;-142.57;82.95;115900.28;6219942;22;20004;-88
2023/07/08 00:12:18;;;;;;;15.88;4.93;;;;;;;-142.57;83.48;115900.28;6271426;22;20031;-91
2023/07/08 00:14:44;;;;;;;9.80;4.43;;;;;;;-142.57;81.39;115900.28;6271491;22;20019;-88
2023/07/08 00:17:13;;;;;;;10.13;4.68;;;;;;;-142.57;83.68;115900.28;6272713;22;20011;-91
2023/07/08 00:20:13;;;;;;;10.45;4.53;;;;;;;-142.57;84.85;115900.28;6301172;22;20004;-88
2023/07/08 00:23:05;;;;;;;;;;;;;;;-142.57;85.51;115900.28;6275003;22;20023;-93
2023/07/08 00:25:32;;;;;;;14.38;4.45;;;;;;;-142.57;87.38;115900.28;6300820;22;19915;-91
2023/07/08 00:28:31;;;;;;;12.25;4.70;;;;;;;-142.57;88.41;115900.28;6250064;22;20055;-90
2023/07/08 00:30:59;;;;;;;10.57;4.32;;;;;;;-142.57;89.97;115900.28;6300534;22;20027;-91
2023/07/08 00:33:41;;;;;;;14.23;4.63;;;;;;;-142.57;89.71;115900.28;6301943;22;20020;-91
2023/07/08 00:36:14;;;;;;;12.50;4.30;;;;;;;-142.57;91.10;115900.28;6263360;22;20019;-92
2023/07/08 00:38:44;;;;;;;11.10;4.53;;;;;;;-142.57;92.73;115900.28;6250322;22;20008;-91
2023/07/08 00:41:31;;;;;;;9.95;5.00;;;;;;;-142.57;93.40;115900.28;6242477;22;20019;-91
2023/07/08 00:44:27;;;;;;;9.63;4.40;;;;;;;-142.57;93.96;115900.28;6301007;22;20031;-92
2023/07/08 00:47:16;;;;;;;10.70;4.03;;;;;;;-142.57;94.45;115900.28;6300710;22;20008;-92
2023/07/08 00:50:03;;;;;;;7.05;4.40;;;;;;;-142.57;93.94;115900.28;6271158;22;20027;-92
2023/07/08 00:52:42;;;;;;;13.40;4.75;;;;;;;-142.57;93.25;115900.28;6278184;22;20073;-92
2023/07/08 00:55:14;;;;;;;13.48;4.43;;;;;;;-142.57;93.05;115900.28;6300868;22;20064;-90
2023/07/08 00:57:45;;;;;;;7.90;4.38;;;;;;;-142.57;94.53;115900.28;6248172;22;20016;-92
2023/07/08 01:00:17;;;;;;;8.88;4.43;;;;;;;-142.57;94.94;115900.28;6274196;22;20012;-92
2023/07/08 01:02:56;;;;;;;13.52;4.55;;;;;;;-142.57;95.31;115900.28;6299869;22;20011;-87
2023/07/08 01:05:30;;;;;;;9.90;4.32;;;;;;;-142.57;95.12;115900.28;6273928;22;20008;-91
2023/07/08 01:08:02;;;;;;;6.38;4.40;;;;;;;-142.57;95.24;115900.28;6250264;22;20012;-90
2023/07/08 01:10:38;;;;;;;10.35;4.55;;;;;;;-142.57;97.42;115900.28;6248549;22;20079;-89
2023/07/08 01:13:18;;;;;;;12.48;4.55;;;;;;;-142.57;98.75;115900.28;6274193;22;20011;-89
2023/07/08 01:15:50;;;;;;;11.30;4.43;;;;;;;-142.57;97.51;115900.28;6249853;22;20014;-92
2023/07/08 01:18:29;;;;;;;7.13;4.43;;;;;;;-142.57;97.37;115900.28;6273891;22;20012;-89
2023/07/08 01:21:33;;;;;;;11.35;4.47;;;;;;;-142.57;97.05;115900.28;6287899;22;20015;-91
2023/07/08 01:24:09;;;;;;;12.63;5.00;;;;;;;-142.57;99.36;115900.28;6251359;22;20008;-89
2023/07/08 01:26:44;;;;;;;13.20;4.45;;;;;;;-142.57;98.76;115900.28;6248518;22;20016;-89
2023/07/08 01:29:12;;;;;;;18.45;4.90;;;;;;;-142.57;98.70;115900.28;6240925;22;20083;-90
2023/07/08 01:31:40;;;;;;;14.93;4.20;;;;;;;-142.57;97.68;115900.28;6225514;22;20128;-92
2023/07/08 01:34:12;;;;;;;13.15;4.97;;;;;;;-142.57;98.53;115900.28;6278510;22;20008;-90
2023/07/08 01:42:30;;;;;;;10.77;5.28;;;;;;;-142.57;98.83;115900.28;6251796;22;20020;-91
2023/07/08 01:44:56;;;;;;;12.43;4.47;;;;;;;-142.57;99.06;115900.28;6270714;22;20087;-88
2023/07/08 01:47:56;;;;;;;9.48;4.72;;;;;;;-142.57;98.17;115900.28;6270750;23;20000;-90
2023/07/08 01:50:31;;;;;;;14.07;4.57;;;;;;;-142.57;97.25;115900.28;6244330;23;20099;-90
2023/07/08 01:53:21;;;;;;;9.32;4.63;;;;;;;-142.57;98.93;115900.28;6269426;23;20046;-91
2023/07/08 01:55:47;;;;;;;9.05;4.10;;;;;;;-142.57;99.14;115900.28;6260302;22;20020;-89
2023/07/08 01:58:17;;;;;;;10.75;4.38;;;;;;;-142.57;99.17;115900.28;6274348;22;20059;-91
2023/07/08 02:00:48;;;;;;;8.65;4.45;;;;;;;-142.57;100.00;115900.28;6222565;23;19992;-89
2023/07/08 02:03:34;;;;;;;7.97;4.53;;;;;;;-142.57;100.00;115900.28;6220822;23;20016;-91
2023/07/08 02:06:14;;;;;;;10.90;4.82;;;;;;;-142.57;100.00;115900.28;6243735;23;20040;-90
2023/07/08 02:08:45;;;;;;;8.93;4.97;;;;;;;-142.57;100.00;115900.28;6270149;23;20000;-91
2023/07/08 02:11:11;;;;;;;9.25;4.22;;;;;;;-142.57;100.00;115900.28;6244474;23;20048;-93
2023/07/08 02:13:39;;;;;;;12.00;4.90;;;;;;;-142.57;100.00;115900.28;6244437;23;20001;-92
2023/07/08 02:16:08;;;;;;;10.93;4.32;;;;;;;-142.57;100.00;115900.28;6244219;23;20048;-92
2023/07/08 02:18:33;;;;;;;13.38;5.00;;;;;;;-142.57;100.00;115900.28;6244002;23;20040;-91
2023/07/08 02:21:01;;;;;;;16.08;4.78;;;;;;;-142.57;100.00;115900.28;6246960;23;19992;-91
2023/07/08 02:23:29;;;;;;;13.63;4.50;;;;;;;-142.57;100.00;115900.28;6248676;22;20000;-91
2023/07/08 02:29:06;;;;;;;8.48;5.57;;;;;;;-142.57;100.00;115900.28;6287245;22;20008;-89
2023/07/08 02:31:33;;;;;;;9.40;4.05;;;;;;;-142.57;100.00;115900.28;6250870;22;20062;-92
2023/07/08 02:34:23;;;;;;;13.52;4.53;;;;;;;-142.57;100.00;115900.28;6250040;22;20066;-90
2023/07/08 02:37:12;;;;;;;9.05;4.28;;;;;;;-142.57;100.00;115900.28;6275082;22;20015;-91
2023/07/08 02:39:39;;;;;;;7.80;4.72;;;;;;;-142.57;100.00;115900.28;6274253;22;20012;-92
2023/07/08 02:42:05;;;;;;;9.32;4.22;;;;;;;-142.57;100.00;115900.28;6248637;22;20134;-90
2023/07/08 02:44:35;;;;;;;11.52;4.45;;;;;;;-142.57;100.00;115900.28;6224565;22;20022;-92
2023/07/08 02:47:01;;;;;;;9.98;4.10;;;;;;;-142.57;100.00;115900.28;6250973;22;20030;-93
2023/07/08 02:49:46;;;;;;;9.30;4.60;;;;;;;-142.57;100.00;115900.28;6303461;22;20011;-90
2023/07/08 02:52:14;;;;;;;11.68;4.85;;;;;;;-142.57;100.00;115900.28;6302505;22;20012;-92
2023/07/08 02:54:49;;;;;;;12.82;8.00;;;;;;;-142.57;100.00;115900.28;6300088;22;20004;-91
2023/07/08 02:57:18;;;;;;;17.85;9.07;;;;;;;-142.57;100.00;115900.28;6272042;22;20066;-91
2023/07/08 02:59:45;;;;;;;18.13;9.50;;;;;;;-142.57;100.00;115900.28;6271856;22;20016;-92
2023/07/08 03:02:23;;;;;;;22.60;9.98;;;;;;;-142.57;100.00;115900.28;6271897;22;20030;-91
2023/07/08 03:04:50;;;;;;;17.45;9.73;;;;;;;-142.57;100.00;115900.28;6269979;22;20022;-91
2023/07/08 03:11:07;;;;;;;16.17;9.30;;;;;;;-142.57;100.00;115900.28;6302599;22;20049;-92
2023/07/08 03:13:34;;;;;;;17.23;8.40;;;;;;;-142.57;100.00;115900.28;6246945;22;20043;-91
2023/07/08 03:16:12;;;;;;;23.88;10.85;;;;;;;-142.57;100.00;115900.28;6220615;22;20023;-91
2023/07/08 03:18:46;;;;;;;16.90;9.65;;;;;;;-142.57;100.00;115900.28;6296158;22;20011;-93
2023/07/08 03:21:15;;;;;;;21.13;9.73;;;;;;;-142.57;100.00;115900.28;6297372;22;20012;-90
2023/07/08 03:23:41;;;;;;;16.55;9.80;;;;;;;-142.57;100.00;115900.28;6219561;22;20016;-91
2023/07/08 03:26:28;;;;;;;14.40;9.77;;;;;;;-142.57;100.00;115900.28;6274511;22;20506;-89
2023/07/08 03:29:03;;;;;;;21.40;9.70;;;;;;;-142.57;100.00;115900.28;6272979;22;20015;-91
2023/07/08 03:31:31;;;;;;;16.40;9.10;;;;;;;-142.57;100.00;115900.28;6245745;22;20462;-91
2023/07/08 03:34:03;;;;;;;;;;;;;;;-142.57;100.00;115900.28;6272534;22;20016;-90
2023/07/08 03:36:51;;;;;;;22.80;10.27;;;;;;;-142.57;100.00;115900.28;6297896;22;19895;-89
2023/07/08 03:39:34;;;;;;;16.42;10.35;;;;;;;-142.57;100.00;115900.28;6250839;22;20008;-90
2023/07/08 03:42:01;;;;;;;23.98;9.93;;;;;;;-142.57;100.00;115900.28;6247826;22;20016;-90
2023/07/08 03:44:31;;;;;;;20.80;9.55;;;;;;;-142.57;100.00;115900.28;6248400;22;20014;-90
2023/07/08 03:46:58;;;;;;;15.50;9.02;;;;;;;-142.57;100.00;115900.28;6272461;22;20019;-90
2023/07/08 03:49:28;;;;;;;17.08;9.65;;;;;;;-142.57;100.00;115900.28;6246717;22;20016;-92
2023/07/08 03:52:16;;;;;;;13.75;8.60;;;;;;;-142.57;100.00;115900.28;6271876;22;20012;-91
2023/07/08 03:54:42;;;;;;;17.40;9.30;;;;;;;-142.57;100.00;115900.28;6298523;22;20007;-92
2023/07/08 03:57:15;;;;;;;13.45;6.78;;;;;;;-142.57;100.00;115900.28;6219819;22;20057;-92
2023/07/08 03:59:46;;;;;;;13.10;5.97;;;;;;;-142.57;100.00;115900.28;6270546;22;20438;-90
2023/07/08 04:02:13;;;;;;;9.32;5.10;;;;;;;-142.57;100.00;115900.28;6297145;22;20011;-91
2023/07/08 04:05:00;;;;;;;14.02;5.07;;;;;;;-142.57;100.00;115900.28;6246926;22;20020;-90
2023/07/08 04:07:29;;;;;;;10.77;4.45;;;;;;;-142.57;100.00;115900.28;6252384;22;20016;-91
2023/07/08 04:10:01;;;;;;;10.15;4.88;;;;;;;-142.57;100.00;115900.28;6273556;22;20019;-91
2023/07/08 04:12:29;;;;;;;8.55;5.13;;;;;;;-142.57;100.00;115900.28;6249488;22;20045;-89
2023/07/08 04:14:55;;;;;;;9.73;5.53;;;;;;;-142.57;100.00;115900.28;6249823;22;20004;-91
2023/07/08 04:17:23;;;;;;;14.30;5.88;;;;;;;-142.57;100.00;115900.28;6278190;22;20032;-89
2023/07/08 04:19:51;;;;;;;12.02;6.30;;;;;;;-142.57;100.00;115900.28;6276698;22;20012;-91
2023/07/08 04:22:17;;;;;;;13.52;6.70;;;;;;;-142.57;100.00;115900.28;6226641;22;20066;-91
2023/07/08 04:24:43;;;;;;;17.15;7.45;;;;;;;-142.57;100.00;115900.28;6275327;22;20014;-89
2023/07/08 04:27:17;;;;;;;15.65;7.03;;;;;;;-142.57;100.00;115900.28;6275015;22;20011;-89
2023/07/08 04:29:46;;;;;;;11.07;7.13;;;;;;;-142.57;100.00;115900.28;6301573;22;20008;-90
2023/07/08 04:32:12;;;;;;;13.13;7.28;;;;;;;-142.57;100.00;115900.28;6251633;22;20027;-92
2023/07/08 04:35:00;;;;;;;16.95;8.38;;;;;;;-142.57;100.00;115900.28;6284554;22;19999;-91
2023/07/08 04:37:26;;;;;;;18.75;7.80;;;;;;;-142.57;100.00;115900.28;6254333;22;20008;-92
2023/07/08 04:40:05;;;;;;;22.38;8.95;;;;;;;-142.57;100.00;115900.28;6244749;22;20011;-91
2023/07/08 04:42:32;;;;;;;16.92;9.23;;;;;;;-142.57;100.00;115900.28;6271933;22;20012;-92
2023/07/08 04:45:09;;;;;;;21.38;10.30;;;;;;;-142.57;100.00;115900.28;6198561;23;20012;-92
2023/07/08 04:47:35;;;;;;;17.15;10.02;;;;;;;-142.57;100.00;115900.28;6217968;23;20063;-92
2023/07/08 04:50:02;;;;;;;17.55;10.13;;;;;;;-142.57;100.00;115900.28;6243770;23;20043;-91
2023/07/08 04:52:30;;;;;;;22.73;11.60;;;;;;;-142.57;100.00;115900.28;6243967;23;20009;-92
2023/07/08 04:55:00;;;;;;;18.40;10.77;;;;;;;-142.57;100.00;115900.28;6219346;23;20014;-92
2023/07/08 04:57:53;;;;;;;28.63;12.27;;;;;;;-142.57;100.00;115900.28;6242654;23;20012;-90
2023/07/08 05:00:27;;;;;;;21.70;12.30;;;;;;;-142.57;100.00;115900.28;6270848;23;19996;-90
2023/07/08 05:03:02;;;;;;;23.15;12.85;;;;;;;-142.57;100.00;115900.28;6222184;23;20012;-91
2023/07/08 05:05:48;;;;;;;25.05;13.25;;;;;;;-142.57;100.00;115900.28;6205932;23;20001;-91
2023/07/08 05:08:15;;;;;;;29.48;13.07;;;;;;;-142.57;100.00;115900.28;6221987;23;20011;-90
2023/07/08 05:11:06;;;;;;;22.58;13.38;;;;;;;-142.57;100.00;115900.28;6221094;23;20047;-91
2023/07/08 05:13:35;;;;;;;31.15;14.43;;;;;;;-142.57;100.00;115900.28;6245338;23;20100;-89
2023/07/08 05:16:10;;;;;;;25.17;13.25;;;;;;;-142.57;100.00;115900.28;6220006;23;20008;-91
2023/07/08 05:18:40;;;;;;;27.15;13.07;;;;;;;-142.57;100.00;115900.28;6220066;23;20008;-92
2023/07/08 05:21:20;;;;;;;28.50;13.63;;;;;;;-142.57;100.00;115900.28;6248625;22;20023;-90
2023/07/08 05:24:07;;;;;;;22.25;13.43;;;;;;;-142.57;100.00;115900.28;6230416;22;20003;-91
2023/07/08 05:26:54;;;;;;;24.70;14.50;;;;;;;-142.57;100.00;115900.28;6223926;22;20000;-91
2023/07/08 05:29:31;;;;;;;32.47;13.98;;;;;;;-142.57;100.00;115900.28;6273208;22;20042;-91
2023/07/08 05:32:02;;;;;;;22.27;14.30;;;;;;;-142.57;100.00;115900.28;6195605;23;20012;-92
2023/07/08 05:35:48;;;;;;;31.50;14.02;;;;;;;-142.57;100.00;115900.28;6248674;23;20016;-88
2023/07/08 05:38:18;;;;;;;32.20;14.27;;;;;;;-142.57;100.00;115900.28;6269801;23;20020;-92
2023/07/08 05:41:22;;;;;;;22.75;12.35;;;;;;;-142.57;100.00;115900.28;6222290;23;20038;-93
2023/07/08 05:43:53;;;;;;;21.88;13.30;;;;;;;-142.57;100.00;115900.28;6261747;22;19999;-91
2023/07/08 05:46:32;;;;;;;29.38;13.73;;;;;;;-142.57;100.00;115900.28;6268896;22;21236;-89
2023/07/08 05:48:58;;;;;;;23.15;12.73;;;;;;;-142.57;100.00;115900.28;6230528;22;20020;-85
2023/07/08 05:51:44;;;;;;;24.85;12.50;;;;;;;-142.57;100.00;115900.28;6273420;22;20015;-91
2023/07/08 05:54:33;;;;;;;24.38;12.32;;;;;;;-142.57;100.00;115900.28;6230899;22;20016;-93
2023/07/08 05:57:08;;;;;;;27.20;12.73;;;;;;;-142.57;100.00;115900.28;6264847;23;20039;-91
2023/07/08 05:59:36;;;;;;;24.20;12.23;;;;;;;-142.57;97.69;115900.28;6233106;23;20016;-89
2023/07/08 06:02:03;;;;;;;23.15;12.80;;;;;;;-142.57;93.23;115900.28;6237305;23;20023;-86
2023/07/08 06:04:30;;;;;;;23.42;12.90;;;;;;;-142.57;91.57;115900.28;6250054;23;20014;-88
2023/07/08 06:07:02;;;;;;;27.67;12.55;;;;;;;-142.57;90.39;115900.28;6251082;23;20012;-85
2023/07/08 06:09:28;;;;;;;26.83;12.55;;;;;;;-142.57;88.92;115900.28;6252292;23;20004;-85
2023/07/08 06:11:53;;;;;;;20.55;12.88;;;;;;;-142.57;85.73;115900.28;6226449;23;20072;-90
2023/07/08 06:14:19;;;;;;;28.75;12.95;;;;;;;-142.57;82.74;115900.28;6232914;23;20035;-88
2023/07/08 06:16:44;;;;;;;24.58;13.63;;;;;;;-142.57;77.30;115900.28;6253610;23;20012;-86
2023/07/08 06:19:10;;;;;;;22.45;12.45;;;;;;;-142.57;74.13;115900.28;6259218;23;20015;-87
2023/07/08 06:21:35;;;;;;;22.23;12.75;;;;;;;-142.57;71.71;115900.28;6235052;23;20019;-86
2023/07/08 06:24:01;;;;;;;27.23;12.13;;;;;;;-142.57;72.93;115900.28;6260431;23;20016;-89
2023/07/08 06:26:27;;;;;;;28.33;12.38;;;;;;;-142.57;70.45;115900.28;6255206;23;20008;-86
2023/07/08 06:28:53;;;;;;;27.38;11.77;;;;;;;-142.57;67.82;115900.28;6203784;23;20415;-84
2023/07/08 06:31:21;;;;;;;18.55;11.35;;;;;;;-142.57;60.17;115900.28;6225990;23;20012;-91
2023/07/08 06:33:47;;;;;;;23.20;10.75;;;;;;;-142.57;55.84;115900.28;6198587;23;20008;-87
2023/07/08 06:38:37;;;;;;;21.93;11.70;;;;;;;-142.57;54.03;115900.28;6244914;23;20134;-88
2023/07/08 06:41:03;;;;;;;21.25;11.43;;;;;;;-142.57;54.10;115900.28;6245300;23;20018;-86
2023/07/08 06:43:28;;;;;;;21.73;11.27;;;;;;;-142.57;49.40;115900.28;6195669;23;20016;-87
2023/07/08 06:45:59;;;;;;;23.40;11.05;;;;;;;-142.57;53.09;115900.28;6244075;23;20072;-91
2023/07/08 06:48:27;;;;;;;19.38;12.23;;;;;;;-142.57;52.64;115900.28;6194500;23;20043;-87
2023/07/08 06:50:54;;;;;;;20.48;11.52;;;;;;;-142.57;53.68;115900.28;6220276;23;20016;-88
2023/07/08 06:53:20;;;;;;;27.42;12.45;;;;;;;-142.57;54.58;115900.28;6247600;23;20559;-86
2023/07/08 06:55:49;;;;;;;20.00;11.52;;;;;;;-142.57;55.05;115900.28;6219136;23;20043;-91
2023/07/08 06:58:14;;;;;;;21.80;11.60;;;;;;;-142.57;52.18;115900.28;6244533;23;20000;-85
2023/07/08 07:00:44;;;;;;;30.95;12.93;;;;;;;-142.57;50.60;115900.28;6244093;23;20031;-87
2023/07/08 07:03:11;;;;;;;24.33;12.30;;;;;;;-142.57;50.56;115900.28;6243297;22;20008;-86
2023/07/08 07:05:37;;;;;;;21.33;13.02;;;;;;;-142.57;51.00;115900.28;6250237;23;20421;-87
2023/07/08 07:08:06;;;;;;;18.65;12.07;;;;;;;-142.57;51.45;115900.28;6229007;23;20016;-92
2023/07/08 07:10:35;;;;;;;26.15;11.30;;;;;;;-142.57;50.28;115900.28;6211606;23;20020;-90
2023/07/08 07:13:02;;;;;;;27.42;11.70;;;;;;;-142.57;51.17;115900.28;6234804;23;20026;-89
2023/07/08 07:15:30;;;;;;;16.85;10.75;;;;;;;-142.57;48.49;115900.28;6207811;23;20016;-90
2023/07/08 07:18:01;;;;;;;19.27;12.02;;;;;;;-142.57;51.72;115900.28;6256960;22;20012;-88
2023/07/08 07:20:29;;;;;;;21.83;12.30;;;;;;;-142.57;53.81;115900.28;6206049;23;20038;-86
2023/07/08 07:23:01;;;;;;;22.83;12.75;;;;;;;-142.57;56.10;115900.28;6256376;23;20000;-87
2023/07/08 07:25:30;;;;;;;24.33;12.45;;;;;;;-142.57;59.73;115900.28;6224100;23;20017;-88
2023/07/08 07:27:56;;;;;;;34.08;12.88;;;;;;;-142.57;57.52;115900.28;6251865;23;20004;-88
2023/07/08 07:30:21;;;;;;;26.48;12.30;;;;;;;-142.57;54.05;115900.28;6205904;23;20004;-88
2023/07/08 07:32:47;;;;;;;25.30;12.27;;;;;;;-142.57;55.06;115900.28;6268424;22;20052;-85
2023/07/08 07:35:14;;;;;;;24.27;12.60;;;;;;;-142.57;51.69;115900.28;6243386;23;19999;-89
2023/07/08 07:37:49;;;;;;;22.65;12.98;;;;;;;-142.57;52.98;115900.28;6241256;23;20012;-84
2023/07/08 07:40:15;;;;;;;26.83;13.82;;;;;;;-142.57;54.04;115900.28;6208339;23;20044;-86
2023/07/08 07:42:43;;;;;;;28.25;12.50;;;;;;;-142.57;52.32;115900.28;6229608;23;20072;-86
2023/07/08 07:45:11;;;;;;;21.98;11.00;;;;;;;-142.57;50.97;115900.28;6249974;23;20031;-86
2023/07/08 07:47:38;;;;;;;22.05;11.43;;;;;;;-142.57;48.34;115900.28;6218338;23;20476;-84
2023/07/08 07:50:07;;;;;;;37.78;11.50;;;;;;;-142.57;47.26;115900.28;6245123;23;20070;-89
2023/07/08 07:52:34;;;;;;;24.20;11.95;;;;;;;-142.57;46.93;115900.28;6245461;23;20009;-87
2023/07/08 07:55:00;;;;;;;25.88;11.07;;;;;;;-142.57;49.16;115900.28;6246003;23;20013;-86
2023/07/08 07:57:27;;;;;;;22.48;13.27;;;;;;;-142.57;48.19;115900.28;6242631;23;20019;-86
2023/07/08 07:59:52;;;;;;;25.63;11.95;;;;;;;-142.57;48.61;115900.28;6240216;23;20004;-89
2023/07/08 08:02:19;;;;;;;16.23;11.98;;;;;;;-142.57;48.55;115900.28;6212285;23;20077;-83
2023/07/08 08:04:45;;;;;;;17.90;11.50;;;;;;;-142.57;47.84;115900.28;6242382;22;20015;-84
2023/07/08 08:07:13;;;;;;;24.98;11.35;;;;;;;-142.57;43.67;115900.28;6248476;23;20008;-86
2023/07/08 08:09:39;;;;;;;19.10;10.70;;;;;;;-142.57;41.33;115900.28;6221601;23;20099;-85
2023/07/08 08:12:08;;;;;;;22.23;12.05;;;;;;;-142.57;40.51;115900.28;6244183;23;20486;-85
2023/07/08 08:14:34;;;;;;;17.45;11.15;;;;;;;-142.57;42.08;115900.28;6211865;23;20599;-89
2023/07/08 08:17:00;;;;;;;21.98;10.07;;;;;;;-142.57;41.19;115900.28;6218774;23;20012;-89
2023/07/08 08:19:25;;;;;;;20.40;9.95;;;;;;;-142.57;40.03;115900.28;6245579;23;20016;-88
2023/07/08 08:21:51;;;;;;;16.52;9.38;;;;;;;-142.57;38.65;115900.28;6223047;23;20016;-88
2023/07/08 08:24:16;;;;;;;11.98;7.68;;;;;;;-142.57;35.41;115900.28;6200632;23;20004;-90
2023/07/08 08:26:42;;;;;;;15.45;8.85;;;;;;;-142.57;38.24;115900.28;6199445;23;20039;-87
2023/07/08 08:29:08;;;;;;;32.55;9.77;;;;;;;-142.57;38.02;115900.28;6224048;23;20039;-89
2023/07/08 08:31:33;;;;;;;13.50;9.00;;;;;;;-142.57;39.35;115900.28;6247538;23;20004;-86
2023/07/08 08:33:59;;;;;;;18.05;9.18;;;;;;;-142.57;38.30;115900.28;6221970;23;20142;-85
2023/07/08 08:36:25;;;;;;;13.18;9.52;;;;;;;-142.57;38.78;115900.28;6222753;23;20087;-86
2023/07/08 08:38:53;;;;;;;16.42;8.55;;;;;;;-142.57;38.80;115900.28;6225285;23;20008;-86
2023/07/08 08:41:32;;;;;;;18.92;9.00;;;;;;;-142.57;38.83;115900.28;6200491;23;20339;-84
2023/07/08 08:43:59;;;;;;;14.30;8.80;;;;;;;-142.57;36.54;115900.28;6253310;23;20016;-90
2023/07/08 08:46:42;;;;;;;18.50;9.30;;;;;;;-142.57;36.53;115900.28;6255145;23;20000;-87
2023/07/08 08:49:15;;;;;;;15.60;9.23;;;;;;;-142.57;36.02;115900.28;6254070;23;20034;-86
2023/07/08 08:51:41;;;;;;;14.27;8.55;;;;;;;-142.57;36.36;115900.28;6252449;23;20008;-85
2023/07/08 08:54:09;;;;;;;13.95;8.35;;;;;;;-142.57;34.19;115900.28;6251838;23;20044;-85
2023/07/08 08:57:05;;;;;;;13.23;7.57;;;;;;;-142.57;34.17;115900.28;6251338;23;20027;-86
2023/07/08 08:59:49;;;;;;;14.02;7.88;;;;;;;-142.57;34.77;115900.28;6251082;23;20062;-87
2023/07/08 09:02:59;;;;;;;13.85;7.88;;;;;;;-142.57;35.88;115900.28;6224551;23;20505;-87
2023/07/08 09:05:25;;;;;;;9.52;6.30;;;;;;;-142.57;34.59;115900.28;6213877;23;20062;-86
2023/07/08 09:08:25;;;;;;;13.48;6.28;;;;;;;-142.57;34.10;115900.28;6255195;23;20008;-85
2023/07/08 09:11:05;;;;;;;14.77;6.82;;;;;;;-142.57;35.08;115900.28;6267251;23;20015;-84
2023/07/08 09:13:36;;;;;;;12.52;7.20;;;;;;;-142.57;35.49;115900.28;6265160;23;20008;-85
2023/07/08 09:16:27;;;;;;;10.38;6.80;;;;;;;-142.57;34.88;115900.28;6234495;23;20016;-84
2023/07/08 09:22:30;;;;;;;18.08;7.13;;;;;;;-142.57;34.90;115900.28;6091430;23;20332;-85
2023/07/08 09:25:13;;;;;;;12.38;6.90;;;;;;;-142.57;34.63;115900.28;6101073;23;20015;-84
2023/07/08 09:27:38;;;;;;;12.35;8.30;;;;;;;-142.57;35.62;115900.28;6076304;23;20014;-84
2023/07/08 09:30:15;;;;;;;16.02;7.95;;;;;;;-142.57;35.24;115900.28;6100689;23;20446;-84
2023/07/08 09:32:41;;;;;;;21.73;8.32;;;;;;;-142.57;37.79;115900.28;6100713;23;20018;-82
2023/07/08 09:35:09;;;;;;;13.02;7.90;;;;;;;-142.57;38.15;115900.28;6081488;23;20046;-82
2023/07/08 09:37:38;;;;;;;14.57;8.70;;;;;;;-142.57;35.54;115900.28;6110868;23;20382;-82
2023/07/08 09:40:16;;;;;;;12.70;7.28;;;;;;;-142.57;34.52;115900.28;6103707;23;20407;-84
2023/07/08 09:42:48;;;;;;;15.60;6.28;;;;;;;-142.57;35.20;115900.28;6105186;23;20022;-88
2023/07/08 09:45:18;;;;;;;9.13;6.13;;;;;;;-142.57;35.48;115900.28;6101771;23;20089;-85
2023/07/08 09:47:45;;;;;;;15.50;5.90;;;;;;;-142.57;35.42;115900.28;6101870;23;20014;-83
2023/07/08 09:50:17;;;;;;;11.63;5.70;;;;;;;-142.57;35.06;115900.28;6101872;23;20049;-85
2023/07/08 09:52:47;;;;;;;8.80;6.10;;;;;;;-142.57;34.17;115900.28;6106218;23;20098;-84
2023/07/08 09:55:13;;;;;;;11.35;5.60;;;;;;;-142.57;34.00;115900.28;6087410;23;20038;-85
2023/07/08 09:57:40;;;;;;;13.13;5.50;;;;;;;-142.57;33.05;115900.28;6104263;23;20354;-83
2023/07/08 10:00:12;;;;;;;9.93;6.20;;;;;;;-142.57;32.53;115900.28;6234612;23;20020;-84
2023/07/08 10:02:43;;;;;;;11.20;5.78;;;;;;;-142.57;32.27;115900.28;6250375;23;20012;-83
2023/07/08 10:05:14;;;;;;;9.45;5.13;;;;;;;-142.57;33.44;115900.28;6223523;23;20514;-84
2023/07/08 10:07:39;;;;;;;9.32;5.30;;;;;;;-142.57;34.05;115900.28;6250448;23;20447;-85
2023/07/08 10:10:11;;;;;;;9.07;5.00;;;;;;;-142.57;33.80;115900.28;6251814;23;20917;-84
2023/07/08 10:12:37;;;;;;;;;;;;;;;-142.57;33.98;115900.28;6224526;23;20043;-83
2023/07/08 10:15:15;;;;;;;9.10;5.05;;;;;;;-142.57;34.18;115900.28;6251604;23;19919;-84
2023/07/08 10:17:40;;;;;;;8.02;4.80;;;;;;;-142.57;33.54;115900.28;6224047;23;20378;-86
2023/07/08 10:20:15;;;;;;;10.68;4.47;;;;;;;-142.57;32.77;115900.28;6252152;23;20016;-86
2023/07/08 10:22:45;;;;;;;8.15;4.55;;;;;;;-142.57;32.38;115900.28;6225139;23;20023;-87
2023/07/08 10:25:27;;;;;;;6.82;4.30;;;;;;;-142.57;31.84;115900.28;6253184;23;20041;-86
2023/07/08 10:28:11;;;;;;;;;;;;;;;-142.57;32.47;115900.28;6201761;23;20004;-82
2023/07/08 10:30:57;;;;;;;9.05;4.57;;;;;;;-142.57;32.41;115900.28;6255128;23;19943;-83
2023/07/08 10:33:58;;;;;;;10.15;4.05;;;;;;;-142.57;31.58;115900.28;6259310;23;20012;-85
2023/07/08 10:37:02;;;;;;;12.73;4.50;;;;;;;-142.57;30.52;115900.28;6166791;23;20029;-85
2023/07/08 10:39:46;;;;;;;8.23;4.43;;;;;;;-142.57;29.63;115900.28;6266977;22;20020;-85
2023/07/08 10:42:44;;;;;;;13.18;4.13;;;;;;;-142.57;30.64;115900.28;6270641;23;20008;-87
2023/07/08 10:45:16;;;;;;;8.55;4.20;;;;;;;-142.57;30.50;115900.28;6231126;23;20012;-86
2023/07/08 10:48:26;;;;;;;11.82;4.57;;;;;;;-142.57;30.30;115900.28;6254370;23;20008;-85
2023/07/08 10:51:13;;;;;;;8.07;4.30;;;;;;;-142.57;29.63;115900.28;6208529;23;20008;-85
2023/07/08 10:54:03;;;;;;;6.70;4.30;;;;;;;-142.57;29.61;115900.28;6254456;23;20015;-88
2023/07/08 10:57:22;;;;;;;8.95;3.75;;;;;;;-142.57;28.61;115900.28;6200811;23;20009;-85
2023/07/08 10:59:50;;;;;;;9.20;4.10;;;;;;;-142.57;28.96;115900.28;6100771;23;20014;-89
2023/07/08 11:02:37;;;;;;;10.80;4.50;;;;;;;-142.57;28.73;115900.28;6216805;23;20024;-86
2023/07/08 11:05:16;;;;;;;9.90;4.13;;;;;;;-142.57;28.91;115900.28;6252750;23;20058;-87
2023/07/08 11:07:48;;;;;;;11.80;4.25;;;;;;;-142.57;28.81;115900.28;6226779;23;20335;-85
2023/07/08 11:10:26;;;;;;;8.00;4.20;;;;;;;-142.57;28.17;115900.28;6253155;23;20008;-83
2023/07/08 11:13:14;;;;;;;7.97;4.00;;;;;;;-142.57;28.49;115900.28;6253876;23;20339;-84
2023/07/08 11:15:49;;;;;;;9.65;4.07;;;;;;;-142.57;28.62;115900.28;6226555;23;20004;-84
2023/07/08 11:18:33;;;;;;;13.20;4.50;;;;;;;-142.57;27.48;115900.28;6228153;23;20012;-85
2023/07/08 11:21:37;;;;;;;9.07;4.05;;;;;;;-142.57;27.19;115900.28;6253184;23;20004;-83
2023/07/08 11:24:11;;;;;;;8.77;4.20;;;;;;;-142.57;27.73;115900.28;6252564;23;20375;-84
2023/07/08 11:26:43;;;;;;;13.02;4.55;;;;;;;-142.57;28.34;115900.28;6225816;23;20018;-86
2023/07/08 11:29:21;;;;;;;;;;;;;;;-142.57;28.39;115900.28;6200135;23;20459;-84
2023/07/08 11:31:48;;;;;;;7.88;4.15;;;;;;;-142.57;27.84;115900.28;6250911;23;20056;-85
2023/07/08 11:34:16;;;;;;;9.88;3.97;;;;;;;-142.57;28.07;115900.28;6225313;23;20015;-84
2023/07/08 11:36:43;;;;;;;7.00;4.03;;;;;;;-142.57;28.77;115900.28;6224343;23;20492;-84
2023/07/08 11:39:35;;;;;;;5.72;3.50;;;;;;;-142.57;28.17;115900.28;6250981;23;20008;-86
2023/07/08 11:42:38;;;;;;;7.00;4.43;;;;;;;-142.57;27.64;115900.28;6250956;23;20454;-84
2023/07/08 11:45:19;;;;;;;6.68;4.07;;;;;;;-142.57;28.44;115900.28;6225796;23;20061;-86
2023/07/08 11:47:48;;;;;;;15.67;4.67;;;;;;;-142.57;29.16;115900.28;6252105;23;20012;-86
2023/07/08 11:50:24;;;;;;;8.45;4.38;;;;;;;-142.57;29.13;115900.28;6251166;23;20008;-87